sensor_id;sensor_type;location;lat;lon;timestamp;P1;durP1;ratioP1;P2;durP2;ratioP2
18200;SDS011;9226;47.858;9.594;2024-02-23T00:02:19;0.30;;;0.30;;
18200;SDS011;9226;47.858;9.594;2024-02-23T00:04:44;0.20;;;0.20;;
18200;SDS011;9226;47.858;9.594;2024-02-23T00:07:10;0.67;;;0.47;;
18200;SDS011;9226;47.858;9.594;2024-02-23T00:09:36;0.20;;;0.20;;
18200;SDS011;9226;47.858;9.594;2024-02-23T00:12:02;0.20;;;0.20;;
18200;SDS011;9226;47.858;9.594;2024-02-23T00:14:28;0.20;;;0.20;;
18200;SDS011;9226;47.858;9.594;2024-02-23T00:16:56;0.20;;;0.20;;
18200;SDS011;9226;47.858;9.594;2024-02-23T00:19:22;0.30;;;0.30;;
18200;SDS011;9226;47.858;9.594;2024-02-23T00:21:49;0.77;;;0.40;;
18200;SDS011;9226;47.858;9.594;2024-02-23T00:24:15;1.23;;;0.30;;
18200;SDS011;9226;47.858;9.594;2024-02-23T00:26:42;0.20;;;0.20;;
18200;SDS011;9226;47.858;9.594;2024-02-23T00:29:08;1.13;;;0.30;;
18200;SDS011;9226;47.858;9.594;2024-02-23T00:31:34;0.87;;;0.30;;
18200;SDS011;9226;47.858;9.594;2024-02-23T00:34:00;0.23;;;0.23;;
18200;SDS011;9226;47.858;9.594;2024-02-23T00:36:26;0.40;;;0.40;;
18200;SDS011;9226;47.858;9.594;2024-02-23T00:38:51;0.27;;;0.27;;
18200;SDS011;9226;47.858;9.594;2024-02-23T00:41:17;0.30;;;0.30;;
18200;SDS011;9226;47.858;9.594;2024-02-23T00:43:42;1.40;;;0.33;;
18200;SDS011;9226;47.858;9.594;2024-02-23T00:46:08;0.50;;;0.33;;
18200;SDS011;9226;47.858;9.594;2024-02-23T00:48:34;2.33;;;0.20;;
18200;SDS011;9226;47.858;9.594;2024-02-23T00:51:01;0.30;;;0.30;;
18200;SDS011;9226;47.858;9.594;2024-02-23T00:53:27;1.07;;;0.30;;
18200;SDS011;9226;47.858;9.594;2024-02-23T00:55:53;1.80;;;0.40;;
18200;SDS011;9226;47.858;9.594;2024-02-23T00:58:19;0.30;;;0.30;;
18200;SDS011;9226;47.858;9.594;2024-02-23T01:00:44;0.30;;;0.30;;
18200;SDS011;9226;47.858;9.594;2024-02-23T01:03:10;0.30;;;0.30;;
18200;SDS011;9226;47.858;9.594;2024-02-23T01:05:35;0.30;;;0.30;;
18200;SDS011;9226;47.858;9.594;2024-02-23T01:08:02;1.50;;;0.40;;
18200;SDS011;9226;47.858;9.594;2024-02-23T01:10:28;1.10;;;0.40;;
18200;SDS011;9226;47.858;9.594;2024-02-23T01:12:53;0.30;;;0.30;;
18200;SDS011;9226;47.858;9.594;2024-02-23T01:15:18;0.80;;;0.60;;
18200;SDS011;9226;47.858;9.594;2024-02-23T01:17:44;0.30;;;0.30;;
18200;SDS011;9226;47.858;9.594;2024-02-23T01:20:10;0.40;;;0.27;;
18200;SDS011;9226;47.858;9.594;2024-02-23T01:22:35;0.63;;;0.20;;
18200;SDS011;9226;47.858;9.594;2024-02-23T01:25:00;0.30;;;0.30;;
18200;SDS011;9226;47.858;9.594;2024-02-23T01:27:26;0.40;;;0.40;;
18200;SDS011;9226;47.858;9.594;2024-02-23T01:29:51;2.00;;;0.40;;
18200;SDS011;9226;47.858;9.594;2024-02-23T01:32:17;0.30;;;0.30;;
18200;SDS011;9226;47.858;9.594;2024-02-23T01:34:42;0.50;;;0.30;;
18200;SDS011;9226;47.858;9.594;2024-02-23T01:37:07;0.40;;;0.30;;
18200;SDS011;9226;47.858;9.594;2024-02-23T01:39:33;0.30;;;0.30;;
18200;SDS011;9226;47.858;9.594;2024-02-23T01:41:58;0.30;;;0.30;;
18200;SDS011;9226;47.858;9.594;2024-02-23T01:44:23;0.30;;;0.30;;
18200;SDS011;9226;47.858;9.594;2024-02-23T01:46:49;0.27;;;0.27;;
18200;SDS011;9226;47.858;9.594;2024-02-23T01:49:15;3.00;;;0.47;;
18200;SDS011;9226;47.858;9.594;2024-02-23T01:51:42;0.30;;;0.30;;
18200;SDS011;9226;47.858;9.594;2024-02-23T01:54:08;0.30;;;0.30;;
18200;SDS011;9226;47.858;9.594;2024-02-23T01:56:34;0.53;;;0.40;;
18200;SDS011;9226;47.858;9.594;2024-02-23T01:59:02;0.30;;;0.30;;
18200;SDS011;9226;47.858;9.594;2024-02-23T02:01:28;0.20;;;0.20;;
18200;SDS011;9226;47.858;9.594;2024-02-23T02:03:55;0.60;;;0.40;;
18200;SDS011;9226;47.858;9.594;2024-02-23T02:06:21;0.30;;;0.30;;
18200;SDS011;9226;47.858;9.594;2024-02-23T02:08:47;0.37;;;0.33;;
18200;SDS011;9226;47.858;9.594;2024-02-23T02:11:12;0.77;;;0.30;;
18200;SDS011;9226;47.858;9.594;2024-02-23T02:13:38;0.90;;;0.40;;
18200;SDS011;9226;47.858;9.594;2024-02-23T02:16:03;0.20;;;0.20;;
18200;SDS011;9226;47.858;9.594;2024-02-23T02:18:28;0.30;;;0.30;;
18200;SDS011;9226;47.858;9.594;2024-02-23T02:20:56;0.87;;;0.30;;
18200;SDS011;9226;47.858;9.594;2024-02-23T02:23:22;0.20;;;0.20;;
18200;SDS011;9226;47.858;9.594;2024-02-23T02:25:55;0.20;;;0.20;;
18200;SDS011;9226;47.858;9.594;2024-02-23T02:28:21;0.20;;;0.20;;
18200;SDS011;9226;47.858;9.594;2024-02-23T02:30:48;0.20;;;0.20;;
18200;SDS011;9226;47.858;9.594;2024-02-23T02:33:14;0.30;;;0.30;;
18200;SDS011;9226;47.858;9.594;2024-02-23T02:35:39;0.30;;;0.30;;
18200;SDS011;9226;47.858;9.594;2024-02-23T02:38:04;0.40;;;0.40;;
18200;SDS011;9226;47.858;9.594;2024-02-23T02:40:30;0.30;;;0.30;;
18200;SDS011;9226;47.858;9.594;2024-02-23T02:42:56;0.83;;;0.30;;
18200;SDS011;9226;47.858;9.594;2024-02-23T02:45:22;0.20;;;0.20;;
18200;SDS011;9226;47.858;9.594;2024-02-23T02:47:47;0.20;;;0.20;;
18200;SDS011;9226;47.858;9.594;2024-02-23T02:50:13;0.87;;;0.53;;
18200;SDS011;9226;47.858;9.594;2024-02-23T02:52:38;0.30;;;0.30;;
18200;SDS011;9226;47.858;9.594;2024-02-23T02:55:04;0.57;;;0.37;;
18200;SDS011;9226;47.858;9.594;2024-02-23T02:57:29;0.20;;;0.20;;
18200;SDS011;9226;47.858;9.594;2024-02-23T02:59:55;1.70;;;0.40;;
18200;SDS011;9226;47.858;9.594;2024-02-23T03:02:20;0.57;;;0.30;;
18200;SDS011;9226;47.858;9.594;2024-02-23T03:04:48;0.20;;;0.20;;
18200;SDS011;9226;47.858;9.594;2024-02-23T03:07:14;0.30;;;0.30;;
18200;SDS011;9226;47.858;9.594;2024-02-23T03:09:41;0.20;;;0.20;;
18200;SDS011;9226;47.858;9.594;2024-02-23T03:12:07;0.20;;;0.20;;
18200;SDS011;9226;47.858;9.594;2024-02-23T03:14:32;0.30;;;0.30;;
18200;SDS011;9226;47.858;9.594;2024-02-23T03:16:58;0.30;;;0.30;;
18200;SDS011;9226;47.858;9.594;2024-02-23T03:19:24;10.30;;;0.40;;
18200;SDS011;9226;47.858;9.594;2024-02-23T03:21:50;0.20;;;0.20;;
18200;SDS011;9226;47.858;9.594;2024-02-23T03:24:16;0.30;;;0.30;;
18200;SDS011;9226;47.858;9.594;2024-02-23T03:26:41;0.50;;;0.30;;
18200;SDS011;9226;47.858;9.594;2024-02-23T03:29:07;0.33;;;0.33;;
18200;SDS011;9226;47.858;9.594;2024-02-23T03:31:32;0.63;;;0.30;;
18200;SDS011;9226;47.858;9.594;2024-02-23T03:33:57;0.30;;;0.30;;
18200;SDS011;9226;47.858;9.594;2024-02-23T03:36:23;0.30;;;0.30;;
18200;SDS011;9226;47.858;9.594;2024-02-23T03:38:48;0.30;;;0.30;;
18200;SDS011;9226;47.858;9.594;2024-02-23T03:41:13;0.30;;;0.30;;
18200;SDS011;9226;47.858;9.594;2024-02-23T03:43:39;2.40;;;0.40;;
18200;SDS011;9226;47.858;9.594;2024-02-23T03:46:05;1.30;;;0.30;;
18200;SDS011;9226;47.858;9.594;2024-02-23T03:48:31;0.70;;;0.40;;
18200;SDS011;9226;47.858;9.594;2024-02-23T03:50:57;0.90;;;0.30;;
18200;SDS011;9226;47.858;9.594;2024-02-23T03:53:22;2.47;;;0.37;;
18200;SDS011;9226;47.858;9.594;2024-02-23T03:55:47;0.53;;;0.40;;
18200;SDS011;9226;47.858;9.594;2024-02-23T03:58:13;0.23;;;0.23;;
18200;SDS011;9226;47.858;9.594;2024-02-23T04:00:38;0.30;;;0.30;;
18200;SDS011;9226;47.858;9.594;2024-02-23T04:03:04;0.50;;;0.40;;
18200;SDS011;9226;47.858;9.594;2024-02-23T04:05:29;2.10;;;0.30;;
18200;SDS011;9226;47.858;9.594;2024-02-23T04:07:54;1.10;;;0.50;;
18200;SDS011;9226;47.858;9.594;2024-02-23T04:10:20;0.30;;;0.30;;
18200;SDS011;9226;47.858;9.594;2024-02-23T04:12:48;3.30;;;0.43;;
18200;SDS011;9226;47.858;9.594;2024-02-23T04:15:13;0.30;;;0.30;;
18200;SDS011;9226;47.858;9.594;2024-02-23T04:17:39;1.03;;;0.40;;
18200;SDS011;9226;47.858;9.594;2024-02-23T04:20:07;0.30;;;0.30;;
18200;SDS011;9226;47.858;9.594;2024-02-23T04:22:34;0.57;;;0.50;;
18200;SDS011;9226;47.858;9.594;2024-02-23T04:25:01;0.73;;;0.40;;
18200;SDS011;9226;47.858;9.594;2024-02-23T04:27:26;3.93;;;0.40;;
18200;SDS011;9226;47.858;9.594;2024-02-23T04:29:51;0.40;;;0.40;;
18200;SDS011;9226;47.858;9.594;2024-02-23T04:32:16;1.70;;;0.50;;
18200;SDS011;9226;47.858;9.594;2024-02-23T04:34:42;0.30;;;0.30;;
18200;SDS011;9226;47.858;9.594;2024-02-23T04:37:07;0.50;;;0.50;;
18200;SDS011;9226;47.858;9.594;2024-02-23T04:39:33;1.07;;;0.40;;
18200;SDS011;9226;47.858;9.594;2024-02-23T04:41:59;0.40;;;0.40;;
18200;SDS011;9226;47.858;9.594;2024-02-23T04:44:24;1.30;;;0.60;;
18200;SDS011;9226;47.858;9.594;2024-02-23T04:46:49;4.00;;;0.83;;
18200;SDS011;9226;47.858;9.594;2024-02-23T04:49:14;3.80;;;0.60;;
18200;SDS011;9226;47.858;9.594;2024-02-23T04:51:40;0.30;;;0.30;;
18200;SDS011;9226;47.858;9.594;2024-02-23T04:54:05;2.73;;;0.60;;
18200;SDS011;9226;47.858;9.594;2024-02-23T04:56:31;0.83;;;0.50;;
18200;SDS011;9226;47.858;9.594;2024-02-23T04:58:56;0.40;;;0.40;;
18200;SDS011;9226;47.858;9.594;2024-02-23T05:01:22;0.57;;;0.50;;
18200;SDS011;9226;47.858;9.594;2024-02-23T05:03:47;0.60;;;0.40;;
18200;SDS011;9226;47.858;9.594;2024-02-23T05:06:13;2.73;;;0.60;;
18200;SDS011;9226;47.858;9.594;2024-02-23T05:08:38;0.50;;;0.50;;
18200;SDS011;9226;47.858;9.594;2024-02-23T05:11:04;5.23;;;0.50;;
18200;SDS011;9226;47.858;9.594;2024-02-23T05:13:29;0.53;;;0.50;;
18200;SDS011;9226;47.858;9.594;2024-02-23T05:15:57;0.40;;;0.40;;
18200;SDS011;9226;47.858;9.594;2024-02-23T05:18:23;1.63;;;0.67;;
18200;SDS011;9226;47.858;9.594;2024-02-23T05:20:48;3.90;;;0.67;;
18200;SDS011;9226;47.858;9.594;2024-02-23T05:23:14;1.53;;;0.67;;
18200;SDS011;9226;47.858;9.594;2024-02-23T05:25:40;2.87;;;0.80;;
18200;SDS011;9226;47.858;9.594;2024-02-23T05:28:06;1.17;;;0.50;;
18200;SDS011;9226;47.858;9.594;2024-02-23T05:30:32;4.57;;;0.60;;
18200;SDS011;9226;47.858;9.594;2024-02-23T05:32:57;4.77;;;1.00;;
18200;SDS011;9226;47.858;9.594;2024-02-23T05:35:28;2.73;;;1.17;;
18200;SDS011;9226;47.858;9.594;2024-02-23T05:37:54;0.97;;;0.63;;
18200;SDS011;9226;47.858;9.594;2024-02-23T05:40:20;3.03;;;1.50;;
18200;SDS011;9226;47.858;9.594;2024-02-23T05:42:45;0.60;;;0.60;;
18200;SDS011;9226;47.858;9.594;2024-02-23T05:45:11;2.37;;;0.83;;
18200;SDS011;9226;47.858;9.594;2024-02-23T05:47:37;2.53;;;1.00;;
18200;SDS011;9226;47.858;9.594;2024-02-23T05:50:07;3.10;;;1.33;;
18200;SDS011;9226;47.858;9.594;2024-02-23T05:52:34;2.10;;;0.90;;
18200;SDS011;9226;47.858;9.594;2024-02-23T05:54:59;2.03;;;0.90;;
18200;SDS011;9226;47.858;9.594;2024-02-23T05:57:26;4.93;;;1.33;;
18200;SDS011;9226;47.858;9.594;2024-02-23T05:59:52;1.33;;;0.83;;
18200;SDS011;9226;47.858;9.594;2024-02-23T06:02:17;3.87;;;1.27;;
18200;SDS011;9226;47.858;9.594;2024-02-23T06:04:43;2.77;;;0.80;;
18200;SDS011;9226;47.858;9.594;2024-02-23T06:07:08;0.93;;;0.70;;
18200;SDS011;9226;47.858;9.594;2024-02-23T06:09:34;1.70;;;0.90;;
18200;SDS011;9226;47.858;9.594;2024-02-23T06:11:59;2.73;;;0.80;;
18200;SDS011;9226;47.858;9.594;2024-02-23T06:14:25;1.63;;;0.70;;
18200;SDS011;9226;47.858;9.594;2024-02-23T06:16:50;6.97;;;1.10;;
18200;SDS011;9226;47.858;9.594;2024-02-23T06:19:15;3.17;;;1.00;;
18200;SDS011;9226;47.858;9.594;2024-02-23T06:21:41;1.80;;;0.70;;
18200;SDS011;9226;47.858;9.594;2024-02-23T06:24:06;4.43;;;1.13;;
18200;SDS011;9226;47.858;9.594;2024-02-23T06:26:33;1.33;;;0.70;;
18200;SDS011;9226;47.858;9.594;2024-02-23T06:28:59;1.70;;;0.90;;
18200;SDS011;9226;47.858;9.594;2024-02-23T06:31:24;1.90;;;0.77;;
18200;SDS011;9226;47.858;9.594;2024-02-23T06:33:50;5.80;;;0.77;;
18200;SDS011;9226;47.858;9.594;2024-02-23T06:36:16;3.77;;;1.10;;
18200;SDS011;9226;47.858;9.594;2024-02-23T06:38:43;1.97;;;1.10;;
18200;SDS011;9226;47.858;9.594;2024-02-23T06:41:09;2.17;;;1.10;;
18200;SDS011;9226;47.858;9.594;2024-02-23T06:43:36;3.70;;;1.40;;
18200;SDS011;9226;47.858;9.594;2024-02-23T06:46:07;12.73;;;3.53;;
18200;SDS011;9226;47.858;9.594;2024-02-23T06:48:33;2.97;;;1.67;;
18200;SDS011;9226;47.858;9.594;2024-02-23T06:50:59;1.07;;;0.77;;
18200;SDS011;9226;47.858;9.594;2024-02-23T06:53:25;2.90;;;1.23;;
18200;SDS011;9226;47.858;9.594;2024-02-23T06:55:50;1.13;;;0.70;;
18200;SDS011;9226;47.858;9.594;2024-02-23T06:58:15;3.27;;;1.40;;
18200;SDS011;9226;47.858;9.594;2024-02-23T07:00:41;1.53;;;1.30;;
18200;SDS011;9226;47.858;9.594;2024-02-23T07:03:07;3.47;;;0.77;;
18200;SDS011;9226;47.858;9.594;2024-02-23T07:05:32;0.83;;;0.80;;
18200;SDS011;9226;47.858;9.594;2024-02-23T07:07:58;2.30;;;0.80;;
18200;SDS011;9226;47.858;9.594;2024-02-23T07:10:23;2.30;;;0.80;;
18200;SDS011;9226;47.858;9.594;2024-02-23T07:12:50;4.50;;;0.60;;
18200;SDS011;9226;47.858;9.594;2024-02-23T07:15:18;1.53;;;0.60;;
18200;SDS011;9226;47.858;9.594;2024-02-23T07:17:44;1.57;;;0.50;;
18200;SDS011;9226;47.858;9.594;2024-02-23T07:20:10;2.27;;;0.73;;
18200;SDS011;9226;47.858;9.594;2024-02-23T07:22:36;1.67;;;0.50;;
18200;SDS011;9226;47.858;9.594;2024-02-23T07:25:01;6.70;;;0.90;;
18200;SDS011;9226;47.858;9.594;2024-02-23T07:27:29;0.87;;;0.80;;
18200;SDS011;9226;47.858;9.594;2024-02-23T07:29:55;3.33;;;0.77;;
18200;SDS011;9226;47.858;9.594;2024-02-23T07:32:20;1.30;;;0.63;;
18200;SDS011;9226;47.858;9.594;2024-02-23T07:34:46;3.60;;;0.60;;
18200;SDS011;9226;47.858;9.594;2024-02-23T07:37:11;2.40;;;0.63;;
18200;SDS011;9226;47.858;9.594;2024-02-23T07:39:36;0.87;;;0.60;;
18200;SDS011;9226;47.858;9.594;2024-02-23T07:42:02;3.77;;;0.83;;
18200;SDS011;9226;47.858;9.594;2024-02-23T07:44:28;1.20;;;0.60;;
18200;SDS011;9226;47.858;9.594;2024-02-23T07:46:53;2.80;;;1.10;;
18200;SDS011;9226;47.858;9.594;2024-02-23T07:49:20;0.60;;;0.53;;
18200;SDS011;9226;47.858;9.594;2024-02-23T07:51:47;0.80;;;0.50;;
18200;SDS011;9226;47.858;9.594;2024-02-23T07:54:12;1.03;;;0.60;;
18200;SDS011;9226;47.858;9.594;2024-02-23T07:56:38;1.90;;;0.73;;
18200;SDS011;9226;47.858;9.594;2024-02-23T07:59:03;3.77;;;0.90;;
18200;SDS011;9226;47.858;9.594;2024-02-23T08:01:28;1.43;;;0.60;;
18200;SDS011;9226;47.858;9.594;2024-02-23T08:03:54;3.03;;;0.80;;
18200;SDS011;9226;47.858;9.594;2024-02-23T08:06:19;0.83;;;0.60;;
18200;SDS011;9226;47.858;9.594;2024-02-23T08:08:45;2.83;;;0.70;;
18200;SDS011;9226;47.858;9.594;2024-02-23T08:11:10;2.00;;;0.63;;
18200;SDS011;9226;47.858;9.594;2024-02-23T08:13:36;3.27;;;1.03;;
18200;SDS011;9226;47.858;9.594;2024-02-23T08:16:01;6.10;;;0.60;;
18200;SDS011;9226;47.858;9.594;2024-02-23T08:18:27;2.87;;;0.80;;
18200;SDS011;9226;47.858;9.594;2024-02-23T08:20:52;2.47;;;0.77;;
18200;SDS011;9226;47.858;9.594;2024-02-23T08:23:18;9.00;;;1.73;;
18200;SDS011;9226;47.858;9.594;2024-02-23T08:25:47;1.70;;;0.60;;
18200;SDS011;9226;47.858;9.594;2024-02-23T08:28:13;2.53;;;0.67;;
18200;SDS011;9226;47.858;9.594;2024-02-23T08:30:38;4.53;;;0.67;;
18200;SDS011;9226;47.858;9.594;2024-02-23T08:33:03;3.30;;;0.90;;
18200;SDS011;9226;47.858;9.594;2024-02-23T08:35:30;0.83;;;0.70;;
18200;SDS011;9226;47.858;9.594;2024-02-23T08:37:55;3.20;;;0.83;;
18200;SDS011;9226;47.858;9.594;2024-02-23T08:40:21;2.70;;;0.90;;
18200;SDS011;9226;47.858;9.594;2024-02-23T08:42:46;1.63;;;0.80;;
18200;SDS011;9226;47.858;9.594;2024-02-23T08:45:12;5.60;;;0.80;;
18200;SDS011;9226;47.858;9.594;2024-02-23T08:47:38;4.53;;;0.80;;
18200;SDS011;9226;47.858;9.594;2024-02-23T08:50:04;7.23;;;0.83;;
18200;SDS011;9226;47.858;9.594;2024-02-23T08:52:30;2.93;;;0.63;;
18200;SDS011;9226;47.858;9.594;2024-02-23T08:54:56;1.43;;;0.70;;
18200;SDS011;9226;47.858;9.594;2024-02-23T08:57:21;0.93;;;0.60;;
18200;SDS011;9226;47.858;9.594;2024-02-23T08:59:48;2.87;;;0.80;;
18200;SDS011;9226;47.858;9.594;2024-02-23T09:02:14;4.17;;;0.70;;
18200;SDS011;9226;47.858;9.594;2024-02-23T09:04:39;3.50;;;0.80;;
18200;SDS011;9226;47.858;9.594;2024-02-23T09:07:06;2.90;;;0.80;;
18200;SDS011;9226;47.858;9.594;2024-02-23T09:09:31;7.70;;;0.70;;
18200;SDS011;9226;47.858;9.594;2024-02-23T09:11:57;1.67;;;1.10;;
18200;SDS011;9226;47.858;9.594;2024-02-23T09:14:22;4.57;;;1.07;;
18200;SDS011;9226;47.858;9.594;2024-02-23T09:16:47;3.37;;;1.00;;
18200;SDS011;9226;47.858;9.594;2024-02-23T09:19:15;1.50;;;0.83;;
18200;SDS011;9226;47.858;9.594;2024-02-23T09:21:41;2.93;;;1.10;;
18200;SDS011;9226;47.858;9.594;2024-02-23T09:24:06;3.60;;;0.93;;
18200;SDS011;9226;47.858;9.594;2024-02-23T09:26:32;5.73;;;0.90;;
18200;SDS011;9226;47.858;9.594;2024-02-23T09:28:57;2.07;;;0.77;;
18200;SDS011;9226;47.858;9.594;2024-02-23T09:31:23;3.60;;;0.90;;
18200;SDS011;9226;47.858;9.594;2024-02-23T09:33:48;2.53;;;0.90;;
18200;SDS011;9226;47.858;9.594;2024-02-23T09:36:16;4.43;;;1.03;;
18200;SDS011;9226;47.858;9.594;2024-02-23T09:38:42;2.63;;;1.20;;
18200;SDS011;9226;47.858;9.594;2024-02-23T09:41:11;4.53;;;1.20;;
18200;SDS011;9226;47.858;9.594;2024-02-23T09:43:44;3.27;;;1.17;;
18200;SDS011;9226;47.858;9.594;2024-02-23T09:46:11;2.20;;;1.10;;
18200;SDS011;9226;47.858;9.594;2024-02-23T09:48:37;3.77;;;1.17;;
18200;SDS011;9226;47.858;9.594;2024-02-23T09:51:03;2.47;;;1.10;;
18200;SDS011;9226;47.858;9.594;2024-02-23T09:53:30;6.33;;;1.30;;
18200;SDS011;9226;47.858;9.594;2024-02-23T09:55:56;4.90;;;1.03;;
18200;SDS011;9226;47.858;9.594;2024-02-23T09:58:25;8.63;;;0.90;;
18200;SDS011;9226;47.858;9.594;2024-02-23T10:00:54;16.30;;;1.40;;
18200;SDS011;9226;47.858;9.594;2024-02-23T10:03:23;5.90;;;1.50;;
18200;SDS011;9226;47.858;9.594;2024-02-23T10:05:53;3.83;;;1.20;;
18200;SDS011;9226;47.858;9.594;2024-02-23T10:08:19;4.93;;;1.13;;
18200;SDS011;9226;47.858;9.594;2024-02-23T10:10:45;3.13;;;1.17;;
18200;SDS011;9226;47.858;9.594;2024-02-23T10:13:12;2.60;;;1.10;;
18200;SDS011;9226;47.858;9.594;2024-02-23T10:15:37;2.87;;;1.13;;
18200;SDS011;9226;47.858;9.594;2024-02-23T10:18:03;4.13;;;1.20;;
18200;SDS011;9226;47.858;9.594;2024-02-23T10:20:29;4.00;;;1.33;;
18200;SDS011;9226;47.858;9.594;2024-02-23T10:22:54;4.97;;;1.20;;
18200;SDS011;9226;47.858;9.594;2024-02-23T10:25:20;1.83;;;1.10;;
18200;SDS011;9226;47.858;9.594;2024-02-23T10:27:46;3.73;;;1.30;;
18200;SDS011;9226;47.858;9.594;2024-02-23T10:30:11;2.77;;;1.20;;
18200;SDS011;9226;47.858;9.594;2024-02-23T10:32:40;2.63;;;1.37;;
18200;SDS011;9226;47.858;9.594;2024-02-23T10:35:08;1.90;;;1.20;;
18200;SDS011;9226;47.858;9.594;2024-02-23T10:37:35;3.03;;;1.53;;
18200;SDS011;9226;47.858;9.594;2024-02-23T10:40:01;3.27;;;1.60;;
18200;SDS011;9226;47.858;9.594;2024-02-23T10:42:30;1.70;;;1.20;;
18200;SDS011;9226;47.858;9.594;2024-02-23T10:45:00;3.40;;;1.27;;
18200;SDS011;9226;47.858;9.594;2024-02-23T10:47:27;2.47;;;1.50;;
18200;SDS011;9226;47.858;9.594;2024-02-23T10:49:55;2.50;;;1.50;;
18200;SDS011;9226;47.858;9.594;2024-02-23T10:52:25;3.47;;;1.30;;
18200;SDS011;9226;47.858;9.594;2024-02-23T10:54:51;1.83;;;1.20;;
18200;SDS011;9226;47.858;9.594;2024-02-23T10:57:18;1.90;;;1.30;;
18200;SDS011;9226;47.858;9.594;2024-02-23T10:59:46;5.93;;;1.47;;
18200;SDS011;9226;47.858;9.594;2024-02-23T11:02:13;2.97;;;1.43;;
18200;SDS011;9226;47.858;9.594;2024-02-23T11:04:46;2.77;;;1.53;;
18200;SDS011;9226;47.858;9.594;2024-02-23T11:07:18;5.33;;;1.60;;
18200;SDS011;9226;47.858;9.594;2024-02-23T11:09:54;2.30;;;1.60;;
18200;SDS011;9226;47.858;9.594;2024-02-23T11:12:23;3.00;;;1.40;;
18200;SDS011;9226;47.858;9.594;2024-02-23T11:14:50;3.57;;;1.73;;
18200;SDS011;9226;47.858;9.594;2024-02-23T11:17:19;2.90;;;1.60;;
18200;SDS011;9226;47.858;9.594;2024-02-23T11:19:46;4.57;;;1.70;;
18200;SDS011;9226;47.858;9.594;2024-02-23T11:22:14;4.67;;;1.80;;
18200;SDS011;9226;47.858;9.594;2024-02-23T11:24:43;4.33;;;1.87;;
18200;SDS011;9226;47.858;9.594;2024-02-23T11:27:13;2.47;;;1.50;;
18200;SDS011;9226;47.858;9.594;2024-02-23T11:29:42;2.37;;;1.60;;
18200;SDS011;9226;47.858;9.594;2024-02-23T11:32:14;7.60;;;2.17;;
18200;SDS011;9226;47.858;9.594;2024-02-23T11:34:41;5.67;;;2.03;;
18200;SDS011;9226;47.858;9.594;2024-02-23T11:37:07;9.27;;;1.80;;
18200;SDS011;9226;47.858;9.594;2024-02-23T11:39:37;3.87;;;1.40;;
18200;SDS011;9226;47.858;9.594;2024-02-23T11:42:04;22.00;;;2.40;;
18200;SDS011;9226;47.858;9.594;2024-02-23T11:44:30;2.83;;;1.47;;
18200;SDS011;9226;47.858;9.594;2024-02-23T11:46:56;3.70;;;1.67;;
18200;SDS011;9226;47.858;9.594;2024-02-23T11:49:27;8.37;;;1.80;;
18200;SDS011;9226;47.858;9.594;2024-02-23T11:51:53;13.73;;;1.87;;
18200;SDS011;9226;47.858;9.594;2024-02-23T11:54:19;4.20;;;1.50;;
18200;SDS011;9226;47.858;9.594;2024-02-23T11:56:45;2.10;;;1.40;;
18200;SDS011;9226;47.858;9.594;2024-02-23T11:59:10;3.90;;;1.23;;
18200;SDS011;9226;47.858;9.594;2024-02-23T12:01:36;3.83;;;1.50;;
18200;SDS011;9226;47.858;9.594;2024-02-23T12:04:01;4.57;;;1.70;;
18200;SDS011;9226;47.858;9.594;2024-02-23T12:06:26;3.20;;;1.20;;
18200;SDS011;9226;47.858;9.594;2024-02-23T12:08:55;6.90;;;1.70;;
18200;SDS011;9226;47.858;9.594;2024-02-23T12:11:21;19.33;;;2.03;;
18200;SDS011;9226;47.858;9.594;2024-02-23T12:13:46;6.97;;;1.60;;
18200;SDS011;9226;47.858;9.594;2024-02-23T12:16:14;4.07;;;1.43;;
18200;SDS011;9226;47.858;9.594;2024-02-23T12:18:39;3.07;;;1.57;;
18200;SDS011;9226;47.858;9.594;2024-02-23T12:21:05;3.27;;;1.23;;
18200;SDS011;9226;47.858;9.594;2024-02-23T12:23:38;12.00;;;1.40;;
18200;SDS011;9226;47.858;9.594;2024-02-23T12:26:07;5.30;;;1.10;;
18200;SDS011;9226;47.858;9.594;2024-02-23T12:28:33;6.03;;;1.10;;
18200;SDS011;9226;47.858;9.594;2024-02-23T12:30:59;4.67;;;1.10;;
18200;SDS011;9226;47.858;9.594;2024-02-23T12:33:27;12.30;;;1.40;;
18200;SDS011;9226;47.858;9.594;2024-02-23T12:36:05;7.77;;;1.30;;
18200;SDS011;9226;47.858;9.594;2024-02-23T12:38:31;4.77;;;1.50;;
18200;SDS011;9226;47.858;9.594;2024-02-23T12:40:57;3.27;;;0.90;;
18200;SDS011;9226;47.858;9.594;2024-02-23T12:43:24;2.97;;;1.00;;
18200;SDS011;9226;47.858;9.594;2024-02-23T12:45:50;1.57;;;0.80;;
18200;SDS011;9226;47.858;9.594;2024-02-23T12:48:21;2.50;;;0.80;;
18200;SDS011;9226;47.858;9.594;2024-02-23T12:50:47;3.87;;;1.00;;
18200;SDS011;9226;47.858;9.594;2024-02-23T12:56:03;3.47;;;0.73;;
18200;SDS011;9226;47.858;9.594;2024-02-23T12:58:30;2.07;;;0.70;;
18200;SDS011;9226;47.858;9.594;2024-02-23T13:00:56;1.50;;;0.73;;
18200;SDS011;9226;47.858;9.594;2024-02-23T13:03:23;3.93;;;0.80;;
18200;SDS011;9226;47.858;9.594;2024-02-23T13:05:50;2.10;;;0.60;;
18200;SDS011;9226;47.858;9.594;2024-02-23T13:08:16;3.73;;;0.70;;
18200;SDS011;9226;47.858;9.594;2024-02-23T13:10:41;3.80;;;0.70;;
18200;SDS011;9226;47.858;9.594;2024-02-23T13:13:07;2.43;;;0.83;;
18200;SDS011;9226;47.858;9.594;2024-02-23T13:15:32;1.13;;;0.70;;
18200;SDS011;9226;47.858;9.594;2024-02-23T13:17:57;7.40;;;0.90;;
18200;SDS011;9226;47.858;9.594;2024-02-23T13:20:23;2.83;;;0.87;;
18200;SDS011;9226;47.858;9.594;2024-02-23T13:22:49;2.17;;;0.80;;
18200;SDS011;9226;47.858;9.594;2024-02-23T13:25:15;1.37;;;0.77;;
18200;SDS011;9226;47.858;9.594;2024-02-23T13:27:40;4.53;;;1.10;;
18200;SDS011;9226;47.858;9.594;2024-02-23T13:30:05;7.20;;;1.03;;
18200;SDS011;9226;47.858;9.594;2024-02-23T13:32:32;4.53;;;1.23;;
18200;SDS011;9226;47.858;9.594;2024-02-23T13:34:57;3.63;;;0.80;;
18200;SDS011;9226;47.858;9.594;2024-02-23T13:37:23;1.73;;;0.90;;
18200;SDS011;9226;47.858;9.594;2024-02-23T13:39:48;6.47;;;1.70;;
18200;SDS011;9226;47.858;9.594;2024-02-23T13:42:14;6.37;;;1.00;;
18200;SDS011;9226;47.858;9.594;2024-02-23T13:44:39;2.30;;;0.90;;
18200;SDS011;9226;47.858;9.594;2024-02-23T13:47:04;2.70;;;1.30;;
18200;SDS011;9226;47.858;9.594;2024-02-23T13:49:30;4.03;;;1.10;;
18200;SDS011;9226;47.858;9.594;2024-02-23T13:51:55;3.07;;;1.00;;
18200;SDS011;9226;47.858;9.594;2024-02-23T13:54:20;1.07;;;0.80;;
18200;SDS011;9226;47.858;9.594;2024-02-23T13:56:46;3.43;;;1.17;;
18200;SDS011;9226;47.858;9.594;2024-02-23T13:59:12;23.70;;;1.43;;
18200;SDS011;9226;47.858;9.594;2024-02-23T14:01:38;7.20;;;1.20;;
18200;SDS011;9226;47.858;9.594;2024-02-23T14:04:06;1.73;;;1.03;;
18200;SDS011;9226;47.858;9.594;2024-02-23T14:06:32;8.73;;;1.17;;
18200;SDS011;9226;47.858;9.594;2024-02-23T14:08:58;4.57;;;0.73;;
18200;SDS011;9226;47.858;9.594;2024-02-23T14:11:23;1.33;;;0.80;;
18200;SDS011;9226;47.858;9.594;2024-02-23T14:13:49;4.63;;;1.17;;
18200;SDS011;9226;47.858;9.594;2024-02-23T14:16:14;2.13;;;0.90;;
18200;SDS011;9226;47.858;9.594;2024-02-23T14:18:39;3.87;;;0.80;;
18200;SDS011;9226;47.858;9.594;2024-02-23T14:21:07;3.23;;;1.00;;
18200;SDS011;9226;47.858;9.594;2024-02-23T14:23:33;3.03;;;0.60;;
18200;SDS011;9226;47.858;9.594;2024-02-23T14:25:58;2.17;;;1.00;;
18200;SDS011;9226;47.858;9.594;2024-02-23T14:28:24;2.03;;;0.83;;
18200;SDS011;9226;47.858;9.594;2024-02-23T14:30:50;5.17;;;0.87;;
18200;SDS011;9226;47.858;9.594;2024-02-23T14:33:15;5.20;;;1.00;;
18200;SDS011;9226;47.858;9.594;2024-02-23T14:35:41;2.87;;;0.83;;
18200;SDS011;9226;47.858;9.594;2024-02-23T14:38:06;2.10;;;1.03;;
18200;SDS011;9226;47.858;9.594;2024-02-23T14:40:31;4.50;;;0.90;;
18200;SDS011;9226;47.858;9.594;2024-02-23T14:42:57;3.93;;;2.03;;
18200;SDS011;9226;47.858;9.594;2024-02-23T14:45:22;5.17;;;1.80;;
18200;SDS011;9226;47.858;9.594;2024-02-23T14:47:48;4.30;;;1.07;;
18200;SDS011;9226;47.858;9.594;2024-02-23T14:50:13;4.17;;;1.07;;
18200;SDS011;9226;47.858;9.594;2024-02-23T14:52:39;8.43;;;1.57;;
18200;SDS011;9226;47.858;9.594;2024-02-23T14:55:04;4.77;;;1.90;;
18200;SDS011;9226;47.858;9.594;2024-02-23T14:57:30;3.40;;;1.40;;